sensor_id;sensor_type;location;lat;lon;timestamp;temperature;humidity
15296;DHT22;7749;49.964;7.890;2023-08-06T00:01:53;17.10;99.90
15296;DHT22;7749;49.964;7.890;2023-08-06T00:04:21;17.20;99.90
15296;DHT22;7749;49.964;7.890;2023-08-06T00:06:48;17.20;99.90
15296;DHT22;7749;49.964;7.890;2023-08-06T00:09:15;17.20;99.90
15296;DHT22;7749;49.964;7.890;2023-08-06T00:11:43;17.20;99.90
15296;DHT22;7749;49.964;7.890;2023-08-06T00:14:11;17.20;99.90
15296;DHT22;7749;49.964;7.890;2023-08-06T00:16:38;17.20;99.90
15296;DHT22;7749;49.964;7.890;2023-08-06T00:19:06;17.10;99.90
15296;DHT22;7749;49.964;7.890;2023-08-06T00:21:33;17.20;99.90
15296;DHT22;7749;49.964;7.890;2023-08-06T00:24:01;17.20;99.90
15296;DHT22;7749;49.964;7.890;2023-08-06T00:26:28;17.20;99.90
15296;DHT22;7749;49.964;7.890;2023-08-06T00:28:55;17.20;99.90
15296;DHT22;7749;49.964;7.890;2023-08-06T00:31:25;17.20;99.90
15296;DHT22;7749;49.964;7.890;2023-08-06T00:33:53;17.20;99.90
15296;DHT22;7749;49.964;7.890;2023-08-06T00:36:20;17.20;99.90
15296;DHT22;7749;49.964;7.890;2023-08-06T00:38:47;17.20;99.90
15296;DHT22;7749;49.964;7.890;2023-08-06T00:41:15;17.20;99.90
15296;DHT22;7749;49.964;7.890;2023-08-06T00:43:42;17.10;99.90
15296;DHT22;7749;49.964;7.890;2023-08-06T00:46:10;17.10;99.90
15296;DHT22;7749;49.964;7.890;2023-08-06T00:48:38;17.20;99.90
15296;DHT22;7749;49.964;7.890;2023-08-06T00:51:05;17.20;99.90
15296;DHT22;7749;49.964;7.890;2023-08-06T00:53:33;17.10;99.90
15296;DHT22;7749;49.964;7.890;2023-08-06T00:56:01;17.10;99.90
15296;DHT22;7749;49.964;7.890;2023-08-06T00:58:29;17.00;99.90
15296;DHT22;7749;49.964;7.890;2023-08-06T01:00:57;17.00;99.90
15296;DHT22;7749;49.964;7.890;2023-08-06T01:03:24;17.00;99.90
15296;DHT22;7749;49.964;7.890;2023-08-06T01:05:52;16.90;99.90
15296;DHT22;7749;49.964;7.890;2023-08-06T01:11:37;16.90;99.90
15296;DHT22;7749;49.964;7.890;2023-08-06T01:14:21;16.90;99.90
15296;DHT22;7749;49.964;7.890;2023-08-06T01:16:52;16.80;99.90
15296;DHT22;7749;49.964;7.890;2023-08-06T01:19:21;16.80;99.90
15296;DHT22;7749;49.964;7.890;2023-08-06T01:21:48;16.70;99.90
15296;DHT22;7749;49.964;7.890;2023-08-06T01:24:17;16.80;99.90
15296;DHT22;7749;49.964;7.890;2023-08-06T01:26:50;16.70;99.90
15296;DHT22;7749;49.964;7.890;2023-08-06T01:29:25;16.70;99.90
15296;DHT22;7749;49.964;7.890;2023-08-06T01:31:57;16.70;99.90
15296;DHT22;7749;49.964;7.890;2023-08-06T01:34:28;16.60;99.90
15296;DHT22;7749;49.964;7.890;2023-08-06T01:36:58;16.60;99.90
15296;DHT22;7749;49.964;7.890;2023-08-06T01:39:27;16.60;99.90
15296;DHT22;7749;49.964;7.890;2023-08-06T01:41:54;16.60;99.90
15296;DHT22;7749;49.964;7.890;2023-08-06T01:44:22;16.70;99.90
15296;DHT22;7749;49.964;7.890;2023-08-06T01:46:49;16.70;99.90
15296;DHT22;7749;49.964;7.890;2023-08-06T01:49:16;16.60;99.90
15296;DHT22;7749;49.964;7.890;2023-08-06T01:51:44;16.60;99.90
15296;DHT22;7749;49.964;7.890;2023-08-06T01:54:11;16.60;99.90
15296;DHT22;7749;49.964;7.890;2023-08-06T01:56:39;16.60;99.90
15296;DHT22;7749;49.964;7.890;2023-08-06T01:59:06;16.50;99.90
15296;DHT22;7749;49.964;7.890;2023-08-06T02:01:34;16.40;99.90
15296;DHT22;7749;49.964;7.890;2023-08-06T02:04:01;16.30;99.90
15296;DHT22;7749;49.964;7.890;2023-08-06T02:06:29;16.30;99.90
15296;DHT22;7749;49.964;7.890;2023-08-06T02:08:56;16.30;99.90
15296;DHT22;7749;49.964;7.890;2023-08-06T02:11:24;16.20;99.90
15296;DHT22;7749;49.964;7.890;2023-08-06T02:13:51;16.10;99.90
15296;DHT22;7749;49.964;7.890;2023-08-06T02:16:18;16.00;99.90
15296;DHT22;7749;49.964;7.890;2023-08-06T02:18:46;16.00;99.90
15296;DHT22;7749;49.964;7.890;2023-08-06T02:21:13;16.00;99.90
15296;DHT22;7749;49.964;7.890;2023-08-06T02:23:41;16.00;99.90
15296;DHT22;7749;49.964;7.890;2023-08-06T02:26:08;15.90;99.90
15296;DHT22;7749;49.964;7.890;2023-08-06T02:28:35;15.90;99.90
15296;DHT22;7749;49.964;7.890;2023-08-06T02:31:03;16.00;99.90
15296;DHT22;7749;49.964;7.890;2023-08-06T02:33:30;16.00;99.90
15296;DHT22;7749;49.964;7.890;2023-08-06T02:36:01;16.10;99.90
15296;DHT22;7749;49.964;7.890;2023-08-06T02:38:32;16.10;99.90
15296;DHT22;7749;49.964;7.890;2023-08-06T02:41:02;16.20;99.90
15296;DHT22;7749;49.964;7.890;2023-08-06T02:43:31;16.20;99.90
15296;DHT22;7749;49.964;7.890;2023-08-06T02:45:59;16.20;99.90
15296;DHT22;7749;49.964;7.890;2023-08-06T02:48:27;16.20;99.90
15296;DHT22;7749;49.964;7.890;2023-08-06T02:50:59;16.30;99.90
15296;DHT22;7749;49.964;7.890;2023-08-06T02:53:26;16.30;99.90
15296;DHT22;7749;49.964;7.890;2023-08-06T02:55:54;16.30;99.90
15296;DHT22;7749;49.964;7.890;2023-08-06T02:58:22;16.40;99.90
15296;DHT22;7749;49.964;7.890;2023-08-06T03:01:03;16.40;99.90
15296;DHT22;7749;49.964;7.890;2023-08-06T03:03:33;16.40;99.90
15296;DHT22;7749;49.964;7.890;2023-08-06T03:06:00;16.40;99.90
15296;DHT22;7749;49.964;7.890;2023-08-06T03:08:28;16.40;99.90
15296;DHT22;7749;49.964;7.890;2023-08-06T03:10:56;16.40;99.90
15296;DHT22;7749;49.964;7.890;2023-08-06T03:13:23;16.40;99.90
15296;DHT22;7749;49.964;7.890;2023-08-06T03:15:55;16.40;99.90
15296;DHT22;7749;49.964;7.890;2023-08-06T03:18:23;16.40;99.90
15296;DHT22;7749;49.964;7.890;2023-08-06T03:20:50;16.40;99.90
15296;DHT22;7749;49.964;7.890;2023-08-06T03:23:18;16.40;99.90
15296;DHT22;7749;49.964;7.890;2023-08-06T03:25:45;16.30;99.90
15296;DHT22;7749;49.964;7.890;2023-08-06T03:28:13;16.30;99.90
15296;DHT22;7749;49.964;7.890;2023-08-06T03:30:41;16.30;99.90
15296;DHT22;7749;49.964;7.890;2023-08-06T03:33:08;16.30;99.90
15296;DHT22;7749;49.964;7.890;2023-08-06T03:35:36;16.40;99.90
15296;DHT22;7749;49.964;7.890;2023-08-06T03:38:04;16.30;99.90
15296;DHT22;7749;49.964;7.890;2023-08-06T03:40:31;16.30;99.90
15296;DHT22;7749;49.964;7.890;2023-08-06T03:42:58;16.40;99.90
15296;DHT22;7749;49.964;7.890;2023-08-06T03:45:26;16.30;99.90
15296;DHT22;7749;49.964;7.890;2023-08-06T03:47:56;16.30;99.90
15296;DHT22;7749;49.964;7.890;2023-08-06T03:50:24;16.30;99.90
15296;DHT22;7749;49.964;7.890;2023-08-06T03:52:51;16.30;99.90
15296;DHT22;7749;49.964;7.890;2023-08-06T03:55:18;16.30;99.90
15296;DHT22;7749;49.964;7.890;2023-08-06T03:57:46;16.20;99.90
15296;DHT22;7749;49.964;7.890;2023-08-06T04:00:13;16.20;99.90
15296;DHT22;7749;49.964;7.890;2023-08-06T04:02:41;16.20;99.90
15296;DHT22;7749;49.964;7.890;2023-08-06T04:05:08;16.30;99.90
15296;DHT22;7749;49.964;7.890;2023-08-06T04:07:36;16.30;99.90
15296;DHT22;7749;49.964;7.890;2023-08-06T04:10:04;16.30;99.90
15296;DHT22;7749;49.964;7.890;2023-08-06T04:12:32;16.30;99.90
15296;DHT22;7749;49.964;7.890;2023-08-06T04:15:03;16.30;99.90
15296;DHT22;7749;49.964;7.890;2023-08-06T04:17:31;16.30;99.90
15296;DHT22;7749;49.964;7.890;2023-08-06T04:19:59;16.20;99.90
15296;DHT22;7749;49.964;7.890;2023-08-06T04:22:26;16.20;99.90
15296;DHT22;7749;49.964;7.890;2023-08-06T04:24:54;16.20;99.90
15296;DHT22;7749;49.964;7.890;2023-08-06T04:27:21;16.20;99.90
15296;DHT22;7749;49.964;7.890;2023-08-06T04:29:48;16.20;99.90
15296;DHT22;7749;49.964;7.890;2023-08-06T04:32:16;16.20;99.90
15296;DHT22;7749;49.964;7.890;2023-08-06T04:34:44;16.20;99.90
15296;DHT22;7749;49.964;7.890;2023-08-06T04:37:11;16.20;99.90
15296;DHT22;7749;49.964;7.890;2023-08-06T04:39:39;16.20;99.90
15296;DHT22;7749;49.964;7.890;2023-08-06T04:42:06;16.30;99.90
15296;DHT22;7749;49.964;7.890;2023-08-06T04:44:34;16.20;99.90
15296;DHT22;7749;49.964;7.890;2023-08-06T04:47:02;16.30;99.90
15296;DHT22;7749;49.964;7.890;2023-08-06T04:49:29;16.20;99.90
15296;DHT22;7749;49.964;7.890;2023-08-06T04:51:56;16.20;99.90
15296;DHT22;7749;49.964;7.890;2023-08-06T04:54:24;16.20;99.90
15296;DHT22;7749;49.964;7.890;2023-08-06T04:56:51;16.20;99.90
15296;DHT22;7749;49.964;7.890;2023-08-06T04:59:19;16.20;99.90
15296;DHT22;7749;49.964;7.890;2023-08-06T05:01:47;16.20;99.90
15296;DHT22;7749;49.964;7.890;2023-08-06T05:04:15;16.20;99.90
15296;DHT22;7749;49.964;7.890;2023-08-06T05:06:42;16.20;99.90
15296;DHT22;7749;49.964;7.890;2023-08-06T05:09:10;16.20;99.90
15296;DHT22;7749;49.964;7.890;2023-08-06T05:11:37;16.20;99.90
15296;DHT22;7749;49.964;7.890;2023-08-06T05:14:04;16.20;99.90
15296;DHT22;7749;49.964;7.890;2023-08-06T05:16:32;16.20;99.90
15296;DHT22;7749;49.964;7.890;2023-08-06T05:18:59;16.20;99.90
15296;DHT22;7749;49.964;7.890;2023-08-06T05:21:27;16.20;99.90
15296;DHT22;7749;49.964;7.890;2023-08-06T05:23:54;16.30;99.90
15296;DHT22;7749;49.964;7.890;2023-08-06T05:26:22;16.20;99.90
15296;DHT22;7749;49.964;7.890;2023-08-06T05:28:49;16.20;99.90
15296;DHT22;7749;49.964;7.890;2023-08-06T05:31:17;16.20;99.90
15296;DHT22;7749;49.964;7.890;2023-08-06T05:33:44;16.20;99.90
15296;DHT22;7749;49.964;7.890;2023-08-06T05:36:12;16.20;99.90
15296;DHT22;7749;49.964;7.890;2023-08-06T05:38:39;16.20;99.90
15296;DHT22;7749;49.964;7.890;2023-08-06T05:41:06;16.20;99.90
15296;DHT22;7749;49.964;7.890;2023-08-06T05:43:34;16.10;99.90
15296;DHT22;7749;49.964;7.890;2023-08-06T05:46:01;16.10;99.90
15296;DHT22;7749;49.964;7.890;2023-08-06T05:48:29;16.10;99.90
15296;DHT22;7749;49.964;7.890;2023-08-06T05:50:56;16.20;99.90
15296;DHT22;7749;49.964;7.890;2023-08-06T05:53:24;16.20;99.90
15296;DHT22;7749;49.964;7.890;2023-08-06T05:55:51;16.20;99.90
15296;DHT22;7749;49.964;7.890;2023-08-06T05:58:19;16.30;99.90
15296;DHT22;7749;49.964;7.890;2023-08-06T06:00:51;16.30;99.90
15296;DHT22;7749;49.964;7.890;2023-08-06T06:03:19;16.30;99.90
15296;DHT22;7749;49.964;7.890;2023-08-06T06:05:46;16.30;99.90
15296;DHT22;7749;49.964;7.890;2023-08-06T06:08:14;16.40;99.90
15296;DHT22;7749;49.964;7.890;2023-08-06T06:10:41;16.40;99.90
15296;DHT22;7749;49.964;7.890;2023-08-06T06:13:08;16.40;99.90
15296;DHT22;7749;49.964;7.890;2023-08-06T06:15:36;16.50;99.90
15296;DHT22;7749;49.964;7.890;2023-08-06T06:18:05;16.60;99.90
15296;DHT22;7749;49.964;7.890;2023-08-06T06:20:32;16.60;99.90
15296;DHT22;7749;49.964;7.890;2023-08-06T06:23:00;16.70;99.90
15296;DHT22;7749;49.964;7.890;2023-08-06T06:25:28;16.80;99.90
15296;DHT22;7749;49.964;7.890;2023-08-06T06:27:56;16.80;99.90
15296;DHT22;7749;49.964;7.890;2023-08-06T06:30:25;16.90;99.90
15296;DHT22;7749;49.964;7.890;2023-08-06T06:32:53;16.90;99.90
15296;DHT22;7749;49.964;7.890;2023-08-06T06:35:20;16.90;99.90
15296;DHT22;7749;49.964;7.890;2023-08-06T06:37:48;17.00;99.90
15296;DHT22;7749;49.964;7.890;2023-08-06T06:40:16;17.10;99.90
15296;DHT22;7749;49.964;7.890;2023-08-06T06:42:44;17.20;99.90
15296;DHT22;7749;49.964;7.890;2023-08-06T06:45:11;17.30;99.90
15296;DHT22;7749;49.964;7.890;2023-08-06T06:47:38;17.40;99.90
15296;DHT22;7749;49.964;7.890;2023-08-06T06:50:06;17.50;99.90
15296;DHT22;7749;49.964;7.890;2023-08-06T06:52:34;17.50;99.90
15296;DHT22;7749;49.964;7.890;2023-08-06T06:55:01;17.50;99.90
15296;DHT22;7749;49.964;7.890;2023-08-06T06:57:29;17.50;99.90
15296;DHT22;7749;49.964;7.890;2023-08-06T06:59:56;17.60;99.90
15296;DHT22;7749;49.964;7.890;2023-08-06T07:02:24;17.70;99.90
15296;DHT22;7749;49.964;7.890;2023-08-06T07:04:51;17.70;99.90
15296;DHT22;7749;49.964;7.890;2023-08-06T07:07:18;17.80;99.90
15296;DHT22;7749;49.964;7.890;2023-08-06T07:09:46;17.80;99.90
15296;DHT22;7749;49.964;7.890;2023-08-06T07:12:13;17.90;99.90
15296;DHT22;7749;49.964;7.890;2023-08-06T07:14:41;18.00;99.90
15296;DHT22;7749;49.964;7.890;2023-08-06T07:17:08;18.10;99.90
15296;DHT22;7749;49.964;7.890;2023-08-06T07:19:36;18.00;99.90
15296;DHT22;7749;49.964;7.890;2023-08-06T07:22:03;18.00;99.90
15296;DHT22;7749;49.964;7.890;2023-08-06T07:24:31;18.00;99.90
15296;DHT22;7749;49.964;7.890;2023-08-06T07:26:58;18.00;99.90
15296;DHT22;7749;49.964;7.890;2023-08-06T07:29:26;17.90;99.90
15296;DHT22;7749;49.964;7.890;2023-08-06T07:31:53;18.00;99.90
15296;DHT22;7749;49.964;7.890;2023-08-06T07:34:22;18.20;99.90
15296;DHT22;7749;49.964;7.890;2023-08-06T07:36:50;18.50;99.90
15296;DHT22;7749;49.964;7.890;2023-08-06T07:39:17;18.60;99.90
15296;DHT22;7749;49.964;7.890;2023-08-06T07:41:45;18.80;99.90
15296;DHT22;7749;49.964;7.890;2023-08-06T07:44:13;19.00;99.90
15296;DHT22;7749;49.964;7.890;2023-08-06T07:46:40;19.00;99.90
15296;DHT22;7749;49.964;7.890;2023-08-06T07:49:09;19.00;99.90
15296;DHT22;7749;49.964;7.890;2023-08-06T07:51:38;19.00;99.90
15296;DHT22;7749;49.964;7.890;2023-08-06T07:54:06;19.20;99.90
15296;DHT22;7749;49.964;7.890;2023-08-06T07:56:33;19.20;99.90
15296;DHT22;7749;49.964;7.890;2023-08-06T07:59:01;19.10;99.90
15296;DHT22;7749;49.964;7.890;2023-08-06T08:01:28;18.90;99.90
15296;DHT22;7749;49.964;7.890;2023-08-06T08:03:57;19.10;99.90
15296;DHT22;7749;49.964;7.890;2023-08-06T08:06:24;19.30;99.90
15296;DHT22;7749;49.964;7.890;2023-08-06T08:09:02;19.30;99.90
15296;DHT22;7749;49.964;7.890;2023-08-06T08:11:30;19.30;99.90
15296;DHT22;7749;49.964;7.890;2023-08-06T08:14:00;19.50;99.90
15296;DHT22;7749;49.964;7.890;2023-08-06T08:16:28;19.40;99.90
15296;DHT22;7749;49.964;7.890;2023-08-06T08:18:56;19.10;99.90
15296;DHT22;7749;49.964;7.890;2023-08-06T08:21:23;19.10;99.90
15296;DHT22;7749;49.964;7.890;2023-08-06T08:23:54;19.30;99.90
15296;DHT22;7749;49.964;7.890;2023-08-06T08:26:21;19.40;99.90
15296;DHT22;7749;49.964;7.890;2023-08-06T08:28:49;19.30;99.90
15296;DHT22;7749;49.964;7.890;2023-08-06T08:31:17;19.30;99.90
15296;DHT22;7749;49.964;7.890;2023-08-06T08:33:44;19.40;99.90
15296;DHT22;7749;49.964;7.890;2023-08-06T08:36:12;19.20;99.90
15296;DHT22;7749;49.964;7.890;2023-08-06T08:38:39;19.20;99.90
15296;DHT22;7749;49.964;7.890;2023-08-06T08:41:09;19.40;95.00
15296;DHT22;7749;49.964;7.890;2023-08-06T08:43:37;19.20;99.90
15296;DHT22;7749;49.964;7.890;2023-08-06T08:46:05;18.90;99.90
15296;DHT22;7749;49.964;7.890;2023-08-06T08:48:34;18.80;99.90
15296;DHT22;7749;49.964;7.890;2023-08-06T08:51:02;18.80;99.90
15296;DHT22;7749;49.964;7.890;2023-08-06T08:53:30;18.80;99.90
15296;DHT22;7749;49.964;7.890;2023-08-06T08:55:58;19.00;99.90
15296;DHT22;7749;49.964;7.890;2023-08-06T08:58:26;19.30;99.90
15296;DHT22;7749;49.964;7.890;2023-08-06T09:00:54;19.40;99.90
15296;DHT22;7749;49.964;7.890;2023-08-06T09:03:23;19.30;99.90
15296;DHT22;7749;49.964;7.890;2023-08-06T09:05:53;19.30;99.90
15296;DHT22;7749;49.964;7.890;2023-08-06T09:08:27;19.20;66.40
15296;DHT22;7749;49.964;7.890;2023-08-06T09:10:56;19.50;71.40
15296;DHT22;7749;49.964;7.890;2023-08-06T09:13:24;19.50;56.50
15296;DHT22;7749;49.964;7.890;2023-08-06T09:15:53;19.70;54.70
15296;DHT22;7749;49.964;7.890;2023-08-06T09:18:26;19.70;15.30
15296;DHT22;7749;49.964;7.890;2023-08-06T09:20:57;20.00;22.20
15296;DHT22;7749;49.964;7.890;2023-08-06T09:23:32;19.50;17.50
15296;DHT22;7749;49.964;7.890;2023-08-06T09:26:01;19.30;45.70
15296;DHT22;7749;49.964;7.890;2023-08-06T09:28:39;19.20;64.50
15296;DHT22;7749;49.964;7.890;2023-08-06T09:31:09;19.10;85.30
15296;DHT22;7749;49.964;7.890;2023-08-06T09:33:40;19.50;52.20
15296;DHT22;7749;49.964;7.890;2023-08-06T09:36:14;19.00;99.90
15296;DHT22;7749;49.964;7.890;2023-08-06T09:38:47;18.70;99.90
15296;DHT22;7749;49.964;7.890;2023-08-06T09:41:35;19.40;95.90
15296;DHT22;7749;49.964;7.890;2023-08-06T09:44:16;19.90;57.70
15296;DHT22;7749;49.964;7.890;2023-08-06T09:46:52;20.40;19.30
15296;DHT22;7749;49.964;7.890;2023-08-06T09:52:01;20.40;1.00
15296;DHT22;7749;49.964;7.890;2023-08-06T09:54:32;19.80;26.70
15296;DHT22;7749;49.964;7.890;2023-08-06T09:57:08;19.90;53.70
15296;DHT22;7749;49.964;7.890;2023-08-06T09:59:37;19.90;93.30
15296;DHT22;7749;49.964;7.890;2023-08-06T10:02:12;20.20;93.30
15296;DHT22;7749;49.964;7.890;2023-08-06T10:05:08;20.80;1.00
15296;DHT22;7749;49.964;7.890;2023-08-06T10:07:52;20.20;99.90
15296;DHT22;7749;49.964;7.890;2023-08-06T10:10:24;20.30;67.40
15296;DHT22;7749;49.964;7.890;2023-08-06T10:12:55;20.20;26.40
15296;DHT22;7749;49.964;7.890;2023-08-06T10:15:28;20.40;11.20
15296;DHT22;7749;49.964;7.890;2023-08-06T10:17:58;21.10;1.00
15296;DHT22;7749;49.964;7.890;2023-08-06T10:20:29;20.60;1.00
15296;DHT22;7749;49.964;7.890;2023-08-06T10:23:04;19.90;1.00
15296;DHT22;7749;49.964;7.890;2023-08-06T10:25:34;19.70;1.00
15296;DHT22;7749;49.964;7.890;2023-08-06T10:28:11;19.10;1.00
15296;DHT22;7749;49.964;7.890;2023-08-06T10:30:45;18.90;28.40
15296;DHT22;7749;49.964;7.890;2023-08-06T10:33:13;18.70;99.90
15296;DHT22;7749;49.964;7.890;2023-08-06T10:35:44;18.40;99.90
15296;DHT22;7749;49.964;7.890;2023-08-06T10:38:22;18.60;43.70
15296;DHT22;7749;49.964;7.890;2023-08-06T10:45:55;20.20;1.00
15296;DHT22;7749;49.964;7.890;2023-08-06T10:48:39;20.10;1.00
15296;DHT22;7749;49.964;7.890;2023-08-06T10:51:12;20.30;1.00
15296;DHT22;7749;49.964;7.890;2023-08-06T10:53:44;19.80;1.00
15296;DHT22;7749;49.964;7.890;2023-08-06T10:56:14;19.30;1.00
15296;DHT22;7749;49.964;7.890;2023-08-06T10:58:46;19.10;57.10
15296;DHT22;7749;49.964;7.890;2023-08-06T11:01:14;19.30;38.00
15296;DHT22;7749;49.964;7.890;2023-08-06T11:03:44;19.50;81.00
15296;DHT22;7749;49.964;7.890;2023-08-06T11:06:20;20.00;1.00
15296;DHT22;7749;49.964;7.890;2023-08-06T11:08:49;19.70;99.90
15296;DHT22;7749;49.964;7.890;2023-08-06T11:11:18;19.30;63.80
15296;DHT22;7749;49.964;7.890;2023-08-06T11:13:47;19.30;99.90
15296;DHT22;7749;49.964;7.890;2023-08-06T11:16:22;19.50;99.90
15296;DHT22;7749;49.964;7.890;2023-08-06T11:18:52;19.80;1.00
15296;DHT22;7749;49.964;7.890;2023-08-06T11:21:24;19.40;1.00
15296;DHT22;7749;49.964;7.890;2023-08-06T11:23:52;19.10;19.60
15296;DHT22;7749;49.964;7.890;2023-08-06T11:26:21;18.60;75.00
15296;DHT22;7749;49.964;7.890;2023-08-06T11:28:49;18.40;99.90
15296;DHT22;7749;49.964;7.890;2023-08-06T11:31:23;18.50;53.60
15296;DHT22;7749;49.964;7.890;2023-08-06T11:33:52;18.20;79.40
15296;DHT22;7749;49.964;7.890;2023-08-06T11:36:32;18.40;99.90
15296;DHT22;7749;49.964;7.890;2023-08-06T11:39:01;18.50;45.20
15296;DHT22;7749;49.964;7.890;2023-08-06T11:41:30;18.60;56.90
15296;DHT22;7749;49.964;7.890;2023-08-06T11:43:58;19.20;1.00
15296;DHT22;7749;49.964;7.890;2023-08-06T11:46:26;19.20;1.00
15296;DHT22;7749;49.964;7.890;2023-08-06T11:48:57;18.80;1.00
15296;DHT22;7749;49.964;7.890;2023-08-06T11:51:25;19.00;1.00
15296;DHT22;7749;49.964;7.890;2023-08-06T11:53:57;18.80;1.00
15296;DHT22;7749;49.964;7.890;2023-08-06T11:56:25;18.20;1.00
15296;DHT22;7749;49.964;7.890;2023-08-06T11:58:56;18.50;1.00
15296;DHT22;7749;49.964;7.890;2023-08-06T12:01:25;18.60;1.00
15296;DHT22;7749;49.964;7.890;2023-08-06T12:03:59;18.30;1.00
15296;DHT22;7749;49.964;7.890;2023-08-06T12:06:29;18.40;1.00
15296;DHT22;7749;49.964;7.890;2023-08-06T12:08:57;18.40;1.00
15296;DHT22;7749;49.964;7.890;2023-08-06T12:11:24;18.50;1.00
15296;DHT22;7749;49.964;7.890;2023-08-06T12:13:51;18.80;1.00
15296;DHT22;7749;49.964;7.890;2023-08-06T12:16:19;18.70;1.00
15296;DHT22;7749;49.964;7.890;2023-08-06T12:18:49;18.60;1.00
15296;DHT22;7749;49.964;7.890;2023-08-06T12:21:16;18.30;1.00
15296;DHT22;7749;49.964;7.890;2023-08-06T12:23:44;18.50;1.00
15296;DHT22;7749;49.964;7.890;2023-08-06T12:26:11;18.60;1.00
15296;DHT22;7749;49.964;7.890;2023-08-06T12:28:38;18.70;1.00
15296;DHT22;7749;49.964;7.890;2023-08-06T12:31:06;19.00;1.00
15296;DHT22;7749;49.964;7.890;2023-08-06T12:33:33;19.10;99.90
15296;DHT22;7749;49.964;7.890;2023-08-06T12:36:02;18.80;1.00
15296;DHT22;7749;49.964;7.890;2023-08-06T12:38:29;18.50;1.00
15296;DHT22;7749;49.964;7.890;2023-08-06T12:41:00;19.10;1.00
15296;DHT22;7749;49.964;7.890;2023-08-06T12:43:28;19.10;99.90
15296;DHT22;7749;49.964;7.890;2023-08-06T12:45:55;19.10;1.00
15296;DHT22;7749;49.964;7.890;2023-08-06T12:48:23;18.80;99.90
15296;DHT22;7749;49.964;7.890;2023-08-06T12:50:50;19.00;99.90
15296;DHT22;7749;49.964;7.890;2023-08-06T12:53:18;18.80;1.00
15296;DHT22;7749;49.964;7.890;2023-08-06T12:55:48;18.60;1.00
15296;DHT22;7749;49.964;7.890;2023-08-06T12:58:15;18.40;1.00
15296;DHT22;7749;49.964;7.890;2023-08-06T13:00:43;18.20;1.00
15296;DHT22;7749;49.964;7.890;2023-08-06T13:03:10;18.20;1.00
15296;DHT22;7749;49.964;7.890;2023-08-06T13:05:38;18.10;1.00
15296;DHT22;7749;49.964;7.890;2023-08-06T13:08:05;17.60;1.00
15296;DHT22;7749;49.964;7.890;2023-08-06T13:10:32;17.50;1.00
15296;DHT22;7749;49.964;7.890;2023-08-06T13:13:00;17.30;25.20
15296;DHT22;7749;49.964;7.890;2023-08-06T13:15:28;17.50;35.40
15296;DHT22;7749;49.964;7.890;2023-08-06T13:17:55;17.50;1.00
15296;DHT22;7749;49.964;7.890;2023-08-06T13:20:23;17.10;1.00
15296;DHT22;7749;49.964;7.890;2023-08-06T13:22:50;16.90;86.70
15296;DHT22;7749;49.964;7.890;2023-08-06T13:25:20;16.70;99.90
15296;DHT22;7749;49.964;7.890;2023-08-06T13:27:47;16.80;99.90
15296;DHT22;7749;49.964;7.890;2023-08-06T13:30:15;17.10;32.20
15296;DHT22;7749;49.964;7.890;2023-08-06T13:32:45;17.10;7.40
15296;DHT22;7749;49.964;7.890;2023-08-06T13:35:12;17.20;19.20
15296;DHT22;7749;49.964;7.890;2023-08-06T13:37:40;17.20;1.00
15296;DHT22;7749;49.964;7.890;2023-08-06T13:40:07;17.10;1.00
15296;DHT22;7749;49.964;7.890;2023-08-06T13:42:36;17.30;18.30
15296;DHT22;7749;49.964;7.890;2023-08-06T13:45:04;17.50;1.00
15296;DHT22;7749;49.964;7.890;2023-08-06T13:47:31;17.50;1.00
15296;DHT22;7749;49.964;7.890;2023-08-06T13:49:59;17.40;1.00
15296;DHT22;7749;49.964;7.890;2023-08-06T13:52:27;17.50;1.00
15296;DHT22;7749;49.964;7.890;2023-08-06T13:54:54;17.80;1.00
15296;DHT22;7749;49.964;7.890;2023-08-06T13:57:22;17.80;1.00
15296;DHT22;7749;49.964;7.890;2023-08-06T13:59:49;17.50;1.00
15296;DHT22;7749;49.964;7.890;2023-08-06T14:02:16;17.40;1.00
15296;DHT22;7749;49.964;7.890;2023-08-06T14:04:44;17.70;1.00
15296;DHT22;7749;49.964;7.890;2023-08-06T14:07:11;18.00;1.00
15296;DHT22;7749;49.964;7.890;2023-08-06T14:09:39;18.20;1.00
15296;DHT22;7749;49.964;7.890;2023-08-06T14:12:07;18.20;99.90
15296;DHT22;7749;49.964;7.890;2023-08-06T14:14:34;18.00;1.00
15296;DHT22;7749;49.964;7.890;2023-08-06T14:17:02;18.00;1.00
15296;DHT22;7749;49.964;7.890;2023-08-06T14:19:30;17.60;1.00
15296;DHT22;7749;49.964;7.890;2023-08-06T14:21:58;17.40;1.00
15296;DHT22;7749;49.964;7.890;2023-08-06T14:24:25;17.70;1.00
15296;DHT22;7749;49.964;7.890;2023-08-06T14:26:53;17.70;1.00
15296;DHT22;7749;49.964;7.890;2023-08-06T14:29:21;17.60;1.00
15296;DHT22;7749;49.964;7.890;2023-08-06T14:31:50;17.30;1.00
15296;DHT22;7749;49.964;7.890;2023-08-06T14:34:17;17.30;1.00
15296;DHT22;7749;49.964;7.890;2023-08-06T14:36:45;17.20;1.00
15296;DHT22;7749;49.964;7.890;2023-08-06T14:39:13;17.20;1.00
15296;DHT22;7749;49.964;7.890;2023-08-06T14:41:40;17.30;1.00
15296;DHT22;7749;49.964;7.890;2023-08-06T14:44:07;17.40;1.00
15296;DHT22;7749;49.964;7.890;2023-08-06T14:46:35;17.60;1.00
15296;DHT22;7749;49.964;7.890;2023-08-06T14:49:02;17.70;1.00
15296;DHT22;7749;49.964;7.890;2023-08-06T14:51:30;17.60;1.00
15296;DHT22;7749;49.964;7.890;2023-08-06T14:53:57;17.70;1.00
15296;DHT22;7749;49.964;7.890;2023-08-06T14:56:25;17.50;1.00
15296;DHT22;7749;49.964;7.890;2023-08-06T14:58:52;17.40;1.00
15296;DHT22;7749;49.964;7.890;2023-08-06T15:01:20;17.30;1.00
15296;DHT22;7749;49.964;7.890;2023-08-06T15:03:48;17.50;1.00
15296;DHT22;7749;49.964;7.890;2023-08-06T15:06:15;17.40;1.00
15296;DHT22;7749;49.964;7.890;2023-08-06T15:08:42;17.40;1.00
15296;DHT22;7749;49.964;7.890;2023-08-06T15:11:15;17.40;1.00
15296;DHT22;7749;49.964;7.890;2023-08-06T15:13:42;17.20;1.00
15296;DHT22;7749;49.964;7.890;2023-08-06T15:16:10;17.40;1.00
15296;DHT22;7749;49.964;7.890;2023-08-06T15:18:37;17.40;1.00
15296;DHT22;7749;49.964;7.890;2023-08-06T15:21:05;17.30;1.00
15296;DHT22;7749;49.964;7.890;2023-08-06T15:23:32;17.50;1.00
15296;DHT22;7749;49.964;7.890;2023-08-06T15:26:00;17.30;1.00
15296;DHT22;7749;49.964;7.890;2023-08-06T15:28:27;17.30;1.00
15296;DHT22;7749;49.964;7.890;2023-08-06T15:30:55;17.50;1.00
15296;DHT22;7749;49.964;7.890;2023-08-06T15:33:23;17.70;1.00
15296;DHT22;7749;49.964;7.890;2023-08-06T15:35:50;17.60;1.00
15296;DHT22;7749;49.964;7.890;2023-08-06T15:38:17;17.60;1.00
15296;DHT22;7749;49.964;7.890;2023-08-06T15:40:45;17.20;22.30
15296;DHT22;7749;49.964;7.890;2023-08-06T15:43:13;16.90;69.60
15296;DHT22;7749;49.964;7.890;2023-08-06T15:45:41;16.70;99.90
15296;DHT22;7749;49.964;7.890;2023-08-06T15:48:08;16.60;99.90
15296;DHT22;7749;49.964;7.890;2023-08-06T15:50:37;16.70;99.90
15296;DHT22;7749;49.964;7.890;2023-08-06T15:53:05;16.90;99.90
15296;DHT22;7749;49.964;7.890;2023-08-06T15:55:33;17.10;96.10
15296;DHT22;7749;49.964;7.890;2023-08-06T15:58:05;16.80;99.90
15296;DHT22;7749;49.964;7.890;2023-08-06T16:00:33;16.80;99.90
15296;DHT22;7749;49.964;7.890;2023-08-06T16:03:01;16.50;99.90
15296;DHT22;7749;49.964;7.890;2023-08-06T16:05:29;16.60;99.90
15296;DHT22;7749;49.964;7.890;2023-08-06T16:07:58;16.60;99.90
15296;DHT22;7749;49.964;7.890;2023-08-06T16:10:26;16.60;99.90